createdAt,value
2022-10-17T00:00:38.531Z,16.40
2022-10-17T00:03:28.608Z,16.40
2022-10-17T00:06:17.572Z,16.40
2022-10-17T00:09:06.072Z,16.40
2022-10-17T00:11:54.631Z,16.40
2022-10-17T00:14:43.206Z,16.40
2022-10-17T00:17:31.955Z,16.40
2022-10-17T00:20:22.125Z,16.40
2022-10-17T00:23:10.776Z,16.30
2022-10-17T00:26:00.517Z,16.30
2022-10-17T00:28:49.846Z,16.20
2022-10-17T00:31:38.460Z,16.20
2022-10-17T00:34:27.082Z,16.20
2022-10-17T00:37:17.084Z,16.20
2022-10-17T00:40:06.906Z,16.20
2022-10-17T00:42:55.463Z,16.20
2022-10-17T00:45:44.014Z,16.20
2022-10-17T00:48:32.657Z,16.20
2022-10-17T00:51:25.819Z,16.10
2022-10-17T00:54:20.516Z,16.10
2022-10-17T00:57:09.200Z,16.10
2022-10-17T00:59:59.669Z,16.00
2022-10-17T01:02:48.275Z,16.00
2022-10-17T01:05:38.148Z,16.00
2022-10-17T01:08:26.941Z,16.00
2022-10-17T01:11:28.629Z,16.00
2022-10-17T01:14:25.117Z,16.00
2022-10-17T01:17:19.713Z,16.00
2022-10-17T01:20:44.178Z,16.10
2022-10-17T01:23:55.240Z,16.00
2022-10-17T01:27:00.541Z,15.80
2022-10-17T01:30:04.347Z,15.70
2022-10-17T01:33:00.010Z,15.70
2022-10-17T01:35:54.151Z,15.60
2022-10-17T01:38:48.558Z,15.60
2022-10-17T01:41:42.766Z,15.60
2022-10-17T01:44:37.516Z,15.60
2022-10-17T01:47:31.181Z,15.70
2022-10-17T01:50:25.267Z,15.70
2022-10-17T01:53:19.524Z,15.60
2022-10-17T01:56:11.131Z,15.60
2022-10-17T01:59:05.716Z,15.60
2022-10-17T02:01:57.248Z,15.60
2022-10-17T02:04:47.058Z,15.60
2022-10-17T02:07:37.036Z,15.60
2022-10-17T02:10:36.743Z,15.60
2022-10-17T02:13:36.264Z,15.50
2022-10-17T02:16:34.776Z,15.60
2022-10-17T02:19:48.035Z,15.60
2022-10-17T02:22:45.017Z,15.60
2022-10-17T02:25:41.592Z,15.50
2022-10-17T02:28:39.672Z,15.50
2022-10-17T02:31:32.303Z,15.40
2022-10-17T02:34:25.909Z,15.40
2022-10-17T02:37:17.579Z,15.40
2022-10-17T02:40:10.039Z,15.40
2022-10-17T02:43:00.998Z,15.40
2022-10-17T02:45:50.051Z,15.40
2022-10-17T02:48:43.669Z,15.50
2022-10-17T02:51:40.264Z,15.50
2022-10-17T02:54:37.413Z,15.50
2022-10-17T02:57:32.153Z,15.50
2022-10-17T03:00:22.793Z,15.50
2022-10-17T03:03:21.755Z,15.50
2022-10-17T03:06:10.336Z,15.40
2022-10-17T03:08:58.885Z,15.50
2022-10-17T03:11:47.500Z,15.50
2022-10-17T03:14:37.490Z,15.50
2022-10-17T03:17:26.130Z,15.40
2022-10-17T03:20:14.709Z,15.40
2022-10-17T03:23:03.307Z,15.40
2022-10-17T03:25:51.863Z,15.40
2022-10-17T03:28:40.522Z,15.30
2022-10-17T03:31:30.626Z,15.30
2022-10-17T03:34:19.211Z,15.30
2022-10-17T03:37:07.754Z,15.20
2022-10-17T03:39:56.316Z,15.30
2022-10-17T03:42:44.878Z,15.40
2022-10-17T03:45:33.568Z,15.40
2022-10-17T03:48:23.478Z,15.50
2022-10-17T03:51:12.117Z,15.50
2022-10-17T03:54:00.741Z,15.40
2022-10-17T03:56:49.436Z,15.40
2022-10-17T03:59:38.177Z,15.40
2022-10-17T04:02:26.744Z,15.40
2022-10-17T04:05:16.732Z,15.30
2022-10-17T04:08:05.432Z,15.30
2022-10-17T04:10:54.092Z,15.40
2022-10-17T04:13:42.657Z,15.40
2022-10-17T04:16:31.444Z,15.40
2022-10-17T04:19:20.059Z,15.50
2022-10-17T04:22:10.013Z,15.40
2022-10-17T04:24:58.551Z,15.40
2022-10-17T04:27:47.133Z,15.50
2022-10-17T04:30:35.703Z,15.50
2022-10-17T04:33:24.251Z,15.40
2022-10-17T04:36:15.059Z,15.40
2022-10-17T04:39:05.956Z,15.40
2022-10-17T04:41:56.554Z,15.40
2022-10-17T04:44:45.106Z,15.40
2022-10-17T04:47:33.951Z,15.40
2022-10-17T04:50:22.576Z,15.40
2022-10-17T04:53:11.147Z,15.50
2022-10-17T04:56:01.146Z,15.40
2022-10-17T04:58:50.297Z,15.50
2022-10-17T05:01:38.887Z,15.50
2022-10-17T05:04:27.612Z,15.40
2022-10-17T05:07:16.177Z,15.40
2022-10-17T05:10:04.844Z,15.40
2022-10-17T05:12:54.819Z,15.40
2022-10-17T05:15:43.371Z,15.30
2022-10-17T05:18:31.885Z,15.30
2022-10-17T05:21:21.382Z,15.30
2022-10-17T05:24:11.865Z,15.20
2022-10-17T05:27:00.461Z,15.20
2022-10-17T05:29:50.392Z,15.10
2022-10-17T05:32:38.950Z,15.10
2022-10-17T05:35:27.655Z,15.10
2022-10-17T05:38:16.195Z,15.10
2022-10-17T05:41:06.581Z,15.20
2022-10-17T05:43:55.122Z,15.20
2022-10-17T05:46:45.180Z,15.20
2022-10-17T05:49:44.950Z,15.10
2022-10-17T05:52:37.515Z,15.10
2022-10-17T05:55:26.155Z,15.10
2022-10-17T05:58:22.002Z,15.10
2022-10-17T06:01:12.868Z,15.10
2022-10-17T06:04:02.937Z,15.10
2022-10-17T06:06:51.472Z,15.20
2022-10-17T06:09:40.191Z,15.30
2022-10-17T06:12:29.001Z,15.40
2022-10-17T06:15:17.859Z,15.40
2022-10-17T06:18:06.451Z,15.40
2022-10-17T06:21:02.800Z,15.40
2022-10-17T06:23:51.495Z,15.50
2022-10-17T06:26:40.344Z,15.80
2022-10-17T06:29:28.864Z,16.00
2022-10-17T06:32:17.427Z,16.20
2022-10-17T06:35:06.589Z,16.20
2022-10-17T06:37:56.527Z,16.20
2022-10-17T06:40:45.063Z,16.20
2022-10-17T06:43:33.613Z,16.20
2022-10-17T06:46:22.289Z,16.30
2022-10-17T06:49:11.771Z,16.40
2022-10-17T06:52:00.374Z,16.50
2022-10-17T06:54:51.857Z,16.60
2022-10-17T06:57:40.480Z,16.80
2022-10-17T07:00:29.119Z,16.70
2022-10-17T07:03:17.693Z,16.70
2022-10-17T07:06:06.921Z,16.70
2022-10-17T07:08:55.767Z,16.80
2022-10-17T07:11:45.885Z,16.80
2022-10-17T07:14:34.456Z,16.80
2022-10-17T07:17:23.023Z,16.90
2022-10-17T07:20:12.275Z,17.00
2022-10-17T07:23:01.102Z,17.10
2022-10-17T07:25:49.668Z,17.20
2022-10-17T07:28:41.478Z,17.20
2022-10-17T07:31:30.140Z,17.10
2022-10-17T07:34:18.860Z,17.10
2022-10-17T07:37:07.564Z,17.20
2022-10-17T07:39:56.615Z,17.20
2022-10-17T07:42:45.300Z,17.20
2022-10-17T07:45:35.224Z,17.30
2022-10-17T07:48:25.030Z,17.30
2022-10-17T07:51:13.576Z,17.20
2022-10-17T07:54:02.286Z,17.10
2022-10-17T07:56:50.994Z,17.10
2022-10-17T07:59:39.890Z,17.00
2022-10-17T08:02:30.113Z,17.00
2022-10-17T08:05:18.807Z,17.00
2022-10-17T08:08:07.467Z,17.10
2022-10-17T08:10:56.428Z,17.10
2022-10-17T08:13:45.268Z,17.10
2022-10-17T08:16:33.888Z,17.20
2022-10-17T08:19:23.787Z,17.20
2022-10-17T08:22:12.382Z,17.20
2022-10-17T08:25:00.916Z,17.20
2022-10-17T08:27:49.772Z,17.20
2022-10-17T08:30:38.378Z,17.30
2022-10-17T08:33:26.930Z,17.30
2022-10-17T08:36:18.015Z,17.40
2022-10-17T08:39:07.307Z,17.40
2022-10-17T08:42:17.553Z,17.50
2022-10-17T08:45:14.739Z,17.50
2022-10-17T08:48:06.831Z,17.50
2022-10-17T08:51:00.485Z,17.60
2022-10-17T08:53:55.567Z,17.70
2022-10-17T08:56:49.200Z,17.90
2022-10-17T08:59:38.180Z,18.00
2022-10-17T09:02:49.529Z,18.10
2022-10-17T09:05:51.485Z,18.10
2022-10-17T09:08:50.600Z,18.20
2022-10-17T09:11:54.758Z,18.30
2022-10-17T09:15:09.649Z,18.40
2022-10-17T09:18:03.290Z,18.40
2022-10-17T09:20:55.169Z,18.40
2022-10-17T09:23:47.245Z,18.30
2022-10-17T09:26:36.159Z,18.40
2022-10-17T09:29:32.491Z,18.30
2022-10-17T09:32:26.888Z,18.40
2022-10-17T09:35:16.440Z,18.40
2022-10-17T09:38:05.451Z,18.50
2022-10-17T09:40:57.357Z,18.70
2022-10-17T09:43:47.892Z,19.10
2022-10-17T09:46:39.486Z,19.20
2022-10-17T09:49:33.788Z,19.30
2022-10-17T09:52:28.790Z,19.30
2022-10-17T09:55:21.444Z,19.30
2022-10-17T09:58:11.207Z,19.30
2022-10-17T10:01:21.039Z,19.30
2022-10-17T10:04:15.732Z,19.20
2022-10-17T10:07:06.294Z,19.20
2022-10-17T10:09:55.565Z,19.20
2022-10-17T10:13:02.348Z,19.30
2022-10-17T10:15:52.096Z,19.30
2022-10-17T10:18:40.712Z,19.40
2022-10-17T10:21:30.679Z,19.60
2022-10-17T10:24:20.377Z,19.60
2022-10-17T10:27:15.825Z,19.80
2022-10-17T10:30:05.729Z,19.60
2022-10-17T10:32:54.488Z,19.70
2022-10-17T10:35:43.138Z,19.80
2022-10-17T10:38:34.802Z,19.90
2022-10-17T10:41:23.542Z,20.00
2022-10-17T10:44:18.125Z,19.90
2022-10-17T10:47:17.023Z,19.90
2022-10-17T10:50:20.009Z,19.80
2022-10-17T10:53:21.936Z,20.00
2022-10-17T10:56:18.240Z,20.00
2022-10-17T10:59:19.161Z,20.10
2022-10-17T11:02:16.674Z,20.20
2022-10-17T11:05:12.357Z,20.20
2022-10-17T11:08:06.437Z,20.40
2022-10-17T11:11:04.857Z,20.40
2022-10-17T11:14:04.122Z,20.40
2022-10-17T11:17:02.034Z,20.50
2022-10-17T11:20:04.181Z,20.60
2022-10-17T11:22:58.779Z,20.70
2022-10-17T11:25:49.025Z,20.60
2022-10-17T11:28:38.096Z,20.50
2022-10-17T11:31:33.169Z,20.40
2022-10-17T11:34:26.533Z,20.20
2022-10-17T11:37:18.866Z,20.00
2022-10-17T11:40:19.207Z,19.90
2022-10-17T11:43:16.544Z,19.80
2022-10-17T11:46:12.237Z,19.80
2022-10-17T11:49:13.147Z,20.10
2022-10-17T11:52:31.616Z,20.70
2022-10-17T11:55:27.017Z,21.00
2022-10-17T11:58:36.260Z,21.30
2022-10-17T12:01:34.488Z,21.50
2022-10-17T12:04:39.463Z,21.60
2022-10-17T12:07:36.902Z,21.60
2022-10-17T12:10:40.700Z,21.40
2022-10-17T12:13:49.348Z,21.40
2022-10-17T12:16:48.231Z,21.40
2022-10-17T12:19:39.158Z,21.40
2022-10-17T12:22:27.908Z,21.30
2022-10-17T12:25:20.857Z,21.20
2022-10-17T12:28:15.992Z,21.00
2022-10-17T12:31:07.154Z,20.90
2022-10-17T12:33:58.206Z,20.80
2022-10-17T12:36:48.246Z,20.90
2022-10-17T12:39:45.469Z,20.90
2022-10-17T12:42:47.765Z,21.00
2022-10-17T12:45:51.528Z,21.10
2022-10-17T12:49:04.782Z,21.10
2022-10-17T12:52:31.185Z,21.10
2022-10-17T12:55:20.417Z,21.20
2022-10-17T12:58:16.233Z,21.40
2022-10-17T13:01:23.899Z,21.40
2022-10-17T13:04:13.356Z,21.50
2022-10-17T13:07:02.891Z,21.60
2022-10-17T13:09:53.473Z,21.60
2022-10-17T13:12:42.110Z,21.70
2022-10-17T13:15:30.910Z,21.80
2022-10-17T13:18:22.209Z,21.90
2022-10-17T13:21:17.664Z,22.10
2022-10-17T13:24:21.743Z,22.20
2022-10-17T13:27:27.084Z,22.20
2022-10-17T13:30:30.920Z,22.10
2022-10-17T13:33:33.328Z,22.00
2022-10-17T13:36:21.996Z,22.00
2022-10-17T13:39:17.015Z,22.00
2022-10-17T13:42:06.288Z,21.90
2022-10-17T13:44:57.044Z,21.80
2022-10-17T13:47:45.913Z,21.70
2022-10-17T13:50:44.629Z,21.50
2022-10-17T13:53:35.422Z,21.50
2022-10-17T13:56:28.881Z,21.40
2022-10-17T13:59:25.088Z,21.30
2022-10-17T14:02:19.964Z,21.30
2022-10-17T14:05:17.657Z,21.20
2022-10-17T14:08:12.374Z,21.10
2022-10-17T14:11:03.201Z,20.90
2022-10-17T14:13:53.227Z,20.80
2022-10-17T14:16:44.122Z,20.60
2022-10-17T14:19:37.024Z,20.40
2022-10-17T14:22:29.546Z,20.30
2022-10-17T14:25:35.898Z,20.30
2022-10-17T14:28:24.511Z,20.20
2022-10-17T14:31:29.679Z,20.10
2022-10-17T14:34:23.125Z,20.10
2022-10-17T14:37:32.165Z,20.10
2022-10-17T14:40:23.526Z,20.10
2022-10-17T14:43:22.286Z,20.10
2022-10-17T14:46:16.490Z,20.10
2022-10-17T14:49:08.119Z,19.90
2022-10-17T14:52:26.527Z,19.80
2022-10-17T14:55:24.093Z,19.70
2022-10-17T14:58:20.089Z,19.60
2022-10-17T15:01:08.664Z,19.60
2022-10-17T15:03:57.206Z,19.50
2022-10-17T15:06:46.409Z,19.40
2022-10-17T15:09:36.389Z,19.40
2022-10-17T15:12:26.438Z,19.30
2022-10-17T15:15:15.099Z,19.20
2022-10-17T15:18:03.794Z,19.10
2022-10-17T15:20:59.821Z,19.10
2022-10-17T15:23:53.661Z,19.00
2022-10-17T15:26:43.823Z,18.90
2022-10-17T15:29:32.410Z,18.90
2022-10-17T15:32:21.057Z,18.90
2022-10-17T15:35:10.701Z,18.90
2022-10-17T15:37:59.512Z,18.90
2022-10-17T15:40:50.951Z,18.90
2022-10-17T15:43:40.864Z,18.80
2022-10-17T15:46:31.469Z,18.80
2022-10-17T15:49:20.893Z,18.70
2022-10-17T15:52:10.476Z,18.70
2022-10-17T15:55:02.452Z,18.60
2022-10-17T15:57:53.787Z,18.50
2022-10-17T16:00:44.025Z,18.40
2022-10-17T16:03:32.733Z,18.40
2022-10-17T16:06:22.495Z,18.40
2022-10-17T16:09:11.446Z,18.40
2022-10-17T16:12:00.080Z,18.50
2022-10-17T16:14:48.667Z,18.40
2022-10-17T16:17:38.574Z,18.40
2022-10-17T16:20:27.829Z,18.40
2022-10-17T16:23:16.366Z,18.30
2022-10-17T16:26:04.934Z,18.30
2022-10-17T16:28:53.505Z,18.30
2022-10-17T16:31:44.647Z,18.20
2022-10-17T16:34:34.583Z,18.10
2022-10-17T16:37:23.169Z,18.10
2022-10-17T16:40:12.761Z,17.90
2022-10-17T16:43:01.317Z,17.90
2022-10-17T16:45:49.882Z,17.90
2022-10-17T16:51:35.958Z,17.70
2022-10-17T16:54:24.491Z,17.70
2022-10-17T16:57:13.131Z,17.50
2022-10-17T17:00:01.657Z,17.50
2022-10-17T17:02:50.246Z,17.40
2022-10-17T17:05:38.800Z,17.30
2022-10-17T17:08:28.745Z,17.20
2022-10-17T17:11:19.606Z,17.10
2022-10-17T17:14:10.118Z,17.10
2022-10-17T17:16:58.683Z,17.00
2022-10-17T17:19:47.206Z,16.90
2022-10-17T17:22:36.013Z,16.90
2022-10-17T17:25:26.047Z,16.80
2022-10-17T17:28:14.613Z,16.80
2022-10-17T17:31:03.697Z,16.80
2022-10-17T17:33:53.195Z,16.70
2022-10-17T17:36:42.129Z,16.70
2022-10-17T17:39:30.667Z,16.60
2022-10-17T17:42:20.886Z,16.60
2022-10-17T17:45:10.529Z,16.60
2022-10-17T17:47:59.085Z,16.50
2022-10-17T17:50:48.071Z,16.50
2022-10-17T17:53:37.362Z,16.40
2022-10-17T17:56:27.498Z,16.40
2022-10-17T17:59:17.412Z,16.40
2022-10-17T18:02:06.816Z,16.50
2022-10-17T18:04:55.389Z,16.50
2022-10-17T18:07:43.967Z,16.50
2022-10-17T18:10:32.543Z,16.50
2022-10-17T18:13:21.372Z,16.50
2022-10-17T18:16:13.970Z,16.60
2022-10-17T18:19:07.121Z,16.50
2022-10-17T18:21:55.848Z,16.50
2022-10-17T18:24:44.401Z,16.30
2022-10-17T18:27:33.022Z,16.30
2022-10-17T18:30:25.485Z,16.30
2022-10-17T18:33:17.502Z,16.30
2022-10-17T18:36:07.420Z,16.20
2022-10-17T18:38:57.014Z,16.10
2022-10-17T18:41:45.650Z,16.10
2022-10-17T18:44:34.196Z,16.10
2022-10-17T18:47:22.774Z,16.10
2022-10-17T18:50:12.763Z,16.10
2022-10-17T18:53:01.336Z,16.10
2022-10-17T18:55:51.419Z,16.10
2022-10-17T18:58:40.954Z,16.20
2022-10-17T19:01:29.802Z,16.20
2022-10-17T19:04:18.427Z,16.30
2022-10-17T19:07:08.338Z,16.30
2022-10-17T19:09:56.880Z,16.40
2022-10-17T19:12:45.453Z,16.50
2022-10-17T19:15:34.014Z,16.60
2022-10-17T19:18:22.556Z,16.60
2022-10-17T19:21:12.705Z,16.70
2022-10-17T19:24:04.734Z,16.70
2022-10-17T19:26:54.891Z,16.80
2022-10-17T19:29:44.104Z,16.80
2022-10-17T19:32:33.241Z,16.70
2022-10-17T19:35:22.009Z,16.60
2022-10-17T19:38:10.602Z,16.50
2022-10-17T19:43:54.604Z,16.40
2022-10-17T19:46:44.439Z,16.40
2022-10-17T19:49:33.030Z,16.40
2022-10-17T19:52:21.595Z,16.40
2022-10-17T19:55:10.739Z,16.40
2022-10-17T19:58:02.079Z,16.30
2022-10-17T20:00:51.814Z,16.30
2022-10-17T20:03:40.377Z,16.30
2022-10-17T20:06:29.097Z,16.20
2022-10-17T20:09:17.768Z,16.20
2022-10-17T20:12:06.469Z,16.20
2022-10-17T20:14:56.400Z,16.10
2022-10-17T20:17:44.961Z,16.10
2022-10-17T20:20:35.734Z,16.10
2022-10-17T20:23:24.537Z,16.00
2022-10-17T20:29:24.454Z,16.10
2022-10-17T20:32:14.376Z,16.10
2022-10-17T20:35:03.091Z,16.10
2022-10-17T20:37:53.196Z,16.10
2022-10-17T20:40:42.783Z,16.10
2022-10-17T20:43:31.443Z,16.10
2022-10-17T20:46:35.465Z,16.10
2022-10-17T20:49:29.055Z,16.10
2022-10-17T20:52:19.261Z,16.10
2022-10-17T20:55:08.414Z,16.00
2022-10-17T20:57:58.314Z,15.90
2022-10-17T21:00:47.376Z,15.90
2022-10-17T21:03:40.990Z,16.00
2022-10-17T21:06:34.090Z,16.00
2022-10-17T21:09:23.139Z,16.00
2022-10-17T21:12:13.198Z,16.00
2022-10-17T21:15:09.514Z,16.10
2022-10-17T21:18:00.842Z,16.10
2022-10-17T21:20:49.383Z,16.10
2022-10-17T21:23:40.303Z,16.10
2022-10-17T21:26:29.427Z,16.10
2022-10-17T21:29:17.973Z,16.10
2022-10-17T21:32:14.643Z,16.10
2022-10-17T21:35:13.915Z,16.10
2022-10-17T21:38:02.468Z,16.10
2022-10-17T21:40:55.300Z,16.10
2022-10-17T21:43:45.667Z,16.20
2022-10-17T21:46:34.941Z,16.20
2022-10-17T21:49:25.071Z,16.20
2022-10-17T21:52:13.585Z,16.20
2022-10-17T21:55:02.164Z,16.20
2022-10-17T21:57:52.721Z,16.30
2022-10-17T22:00:41.758Z,16.30
2022-10-17T22:03:30.348Z,16.30
2022-10-17T22:09:29.472Z,16.30
2022-10-17T22:12:17.987Z,16.30
2022-10-17T22:15:09.366Z,16.30
2022-10-17T22:17:58.064Z,16.30
2022-10-17T22:20:46.616Z,16.30
2022-10-17T22:23:38.204Z,16.30
2022-10-17T22:26:27.028Z,16.30
2022-10-17T22:29:16.119Z,16.30
2022-10-17T22:32:06.168Z,16.30
2022-10-17T22:34:54.713Z,16.20
2022-10-17T22:37:43.270Z,16.30
2022-10-17T22:40:31.878Z,16.30
2022-10-17T22:43:20.473Z,16.20
2022-10-17T22:46:09.365Z,16.20
2022-10-17T22:48:59.335Z,16.20
2022-10-17T22:51:47.853Z,16.20
2022-10-17T22:54:36.656Z,16.20
2022-10-17T22:57:25.256Z,16.20
2022-10-17T23:00:14.787Z,16.20
2022-10-17T23:03:03.546Z,16.10
2022-10-17T23:05:53.553Z,16.20
2022-10-17T23:08:42.545Z,16.20
2022-10-17T23:11:31.388Z,16.10
2022-10-17T23:14:20.044Z,16.20
2022-10-17T23:17:08.620Z,16.20
2022-10-17T23:19:57.790Z,16.20
2022-10-17T23:22:47.778Z,16.20
2022-10-17T23:25:36.406Z,16.20
2022-10-17T23:28:25.026Z,16.20
2022-10-17T23:31:15.482Z,16.20
2022-10-17T23:34:04.051Z,16.10
2022-10-17T23:36:53.685Z,16.10
2022-10-17T23:39:43.608Z,16.10
2022-10-17T23:42:32.169Z,16.10
2022-10-17T23:45:20.927Z,16.00
2022-10-17T23:48:09.468Z,16.00
2022-10-17T23:50:58.203Z,16.00
2022-10-17T23:53:47.049Z,15.90
2022-10-17T23:56:36.995Z,15.90
2022-10-17T23:59:25.638Z,16.00
